sensor_id;sensor_type;location;lat;lon;timestamp;P1;durP1;ratioP1;P2;durP2;ratioP2
8737;SDS011;4405;49.272;8.590;2022-08-05T00:01:45;6.93;;;3.10;;
8737;SDS011;4405;49.272;8.590;2022-08-05T00:04:11;10.37;;;3.13;;
8737;SDS011;4405;49.272;8.590;2022-08-05T00:06:38;15.07;;;3.17;;
8737;SDS011;4405;49.272;8.590;2022-08-05T00:09:04;7.83;;;2.70;;
8737;SDS011;4405;49.272;8.590;2022-08-05T00:11:30;7.37;;;2.50;;
8737;SDS011;4405;49.272;8.590;2022-08-05T00:13:57;10.77;;;2.80;;
8737;SDS011;4405;49.272;8.590;2022-08-05T00:16:24;11.10;;;2.80;;
8737;SDS011;4405;49.272;8.590;2022-08-05T00:18:51;11.33;;;2.93;;
8737;SDS011;4405;49.272;8.590;2022-08-05T00:21:17;6.13;;;2.80;;
8737;SDS011;4405;49.272;8.590;2022-08-05T00:23:45;14.83;;;3.20;;
8737;SDS011;4405;49.272;8.590;2022-08-05T00:26:11;9.73;;;2.47;;
8737;SDS011;4405;49.272;8.590;2022-08-05T00:28:38;16.30;;;3.23;;
8737;SDS011;4405;49.272;8.590;2022-08-05T00:31:04;21.53;;;3.57;;
8737;SDS011;4405;49.272;8.590;2022-08-05T00:33:32;33.20;;;4.40;;
8737;SDS011;4405;49.272;8.590;2022-08-05T00:35:58;75.93;;;5.80;;
8737;SDS011;4405;49.272;8.590;2022-08-05T00:38:25;28.37;;;4.27;;
8737;SDS011;4405;49.272;8.590;2022-08-05T00:40:52;24.47;;;3.70;;
8737;SDS011;4405;49.272;8.590;2022-08-05T00:43:19;17.20;;;3.80;;
8737;SDS011;4405;49.272;8.590;2022-08-05T00:45:46;15.40;;;3.30;;
8737;SDS011;4405;49.272;8.590;2022-08-05T00:48:12;17.77;;;3.63;;
8737;SDS011;4405;49.272;8.590;2022-08-05T00:50:42;10.03;;;3.60;;
8737;SDS011;4405;49.272;8.590;2022-08-05T00:53:08;13.03;;;3.40;;
8737;SDS011;4405;49.272;8.590;2022-08-05T00:55:35;17.47;;;3.30;;
8737;SDS011;4405;49.272;8.590;2022-08-05T00:58:01;11.23;;;3.80;;
8737;SDS011;4405;49.272;8.590;2022-08-05T01:00:28;8.00;;;3.40;;
8737;SDS011;4405;49.272;8.590;2022-08-05T01:02:55;11.53;;;3.53;;
8737;SDS011;4405;49.272;8.590;2022-08-05T01:05:22;10.80;;;3.83;;
8737;SDS011;4405;49.272;8.590;2022-08-05T01:07:50;8.37;;;3.73;;
8737;SDS011;4405;49.272;8.590;2022-08-05T01:10:17;8.33;;;4.17;;
8737;SDS011;4405;49.272;8.590;2022-08-05T01:12:46;10.97;;;4.40;;
8737;SDS011;4405;49.272;8.590;2022-08-05T01:15:13;10.50;;;4.20;;
8737;SDS011;4405;49.272;8.590;2022-08-05T01:17:42;9.03;;;4.40;;
8737;SDS011;4405;49.272;8.590;2022-08-05T01:20:12;5.67;;;4.40;;
8737;SDS011;4405;49.272;8.590;2022-08-05T01:22:44;6.70;;;4.43;;
8737;SDS011;4405;49.272;8.590;2022-08-05T01:25:36;11.57;;;4.20;;
8737;SDS011;4405;49.272;8.590;2022-08-05T01:28:14;5.87;;;4.07;;
8737;SDS011;4405;49.272;8.590;2022-08-05T01:30:42;6.63;;;4.13;;
8737;SDS011;4405;49.272;8.590;2022-08-05T01:33:09;8.17;;;4.03;;
8737;SDS011;4405;49.272;8.590;2022-08-05T01:35:38;10.17;;;4.00;;
8737;SDS011;4405;49.272;8.590;2022-08-05T01:38:05;8.77;;;4.10;;
8737;SDS011;4405;49.272;8.590;2022-08-05T01:40:33;13.97;;;4.10;;
8737;SDS011;4405;49.272;8.590;2022-08-05T01:43:01;8.73;;;4.07;;
8737;SDS011;4405;49.272;8.590;2022-08-05T01:45:29;9.27;;;4.10;;
8737;SDS011;4405;49.272;8.590;2022-08-05T01:47:56;10.00;;;3.90;;
8737;SDS011;4405;49.272;8.590;2022-08-05T01:50:25;7.57;;;3.93;;
8737;SDS011;4405;49.272;8.590;2022-08-05T01:52:52;5.13;;;4.13;;
8737;SDS011;4405;49.272;8.590;2022-08-05T01:55:19;11.13;;;4.17;;
8737;SDS011;4405;49.272;8.590;2022-08-05T01:57:46;12.93;;;4.50;;
8737;SDS011;4405;49.272;8.590;2022-08-05T02:00:13;8.80;;;4.60;;
8737;SDS011;4405;49.272;8.590;2022-08-05T02:02:42;10.30;;;4.53;;
8737;SDS011;4405;49.272;8.590;2022-08-05T02:05:10;8.10;;;4.23;;
8737;SDS011;4405;49.272;8.590;2022-08-05T02:07:38;6.80;;;4.27;;
8737;SDS011;4405;49.272;8.590;2022-08-05T02:10:07;10.00;;;4.33;;
8737;SDS011;4405;49.272;8.590;2022-08-05T02:12:36;4.83;;;3.90;;
8737;SDS011;4405;49.272;8.590;2022-08-05T02:15:06;7.93;;;4.27;;
8737;SDS011;4405;49.272;8.590;2022-08-05T02:17:35;7.47;;;4.07;;
8737;SDS011;4405;49.272;8.590;2022-08-05T02:20:06;7.53;;;4.23;;
8737;SDS011;4405;49.272;8.590;2022-08-05T02:22:35;6.53;;;4.53;;
8737;SDS011;4405;49.272;8.590;2022-08-05T02:25:05;9.30;;;4.17;;
8737;SDS011;4405;49.272;8.590;2022-08-05T02:27:34;4.50;;;4.10;;
8737;SDS011;4405;49.272;8.590;2022-08-05T02:30:02;6.87;;;4.10;;
8737;SDS011;4405;49.272;8.590;2022-08-05T02:32:28;8.70;;;4.30;;
8737;SDS011;4405;49.272;8.590;2022-08-05T02:34:56;7.50;;;4.07;;
8737;SDS011;4405;49.272;8.590;2022-08-05T02:37:25;7.17;;;4.10;;
8737;SDS011;4405;49.272;8.590;2022-08-05T02:39:52;7.97;;;4.57;;
8737;SDS011;4405;49.272;8.590;2022-08-05T02:42:19;6.10;;;4.03;;
8737;SDS011;4405;49.272;8.590;2022-08-05T02:44:46;8.60;;;4.33;;
8737;SDS011;4405;49.272;8.590;2022-08-05T02:47:12;4.90;;;4.23;;
8737;SDS011;4405;49.272;8.590;2022-08-05T02:49:40;7.63;;;4.70;;
8737;SDS011;4405;49.272;8.590;2022-08-05T02:52:08;10.93;;;4.60;;
8737;SDS011;4405;49.272;8.590;2022-08-05T02:54:37;7.20;;;3.93;;
8737;SDS011;4405;49.272;8.590;2022-08-05T02:57:04;7.03;;;4.60;;
8737;SDS011;4405;49.272;8.590;2022-08-05T02:59:31;7.00;;;4.30;;
8737;SDS011;4405;49.272;8.590;2022-08-05T03:01:59;7.37;;;4.23;;
8737;SDS011;4405;49.272;8.590;2022-08-05T03:04:26;6.30;;;4.33;;
8737;SDS011;4405;49.272;8.590;2022-08-05T03:06:53;4.50;;;4.13;;
8737;SDS011;4405;49.272;8.590;2022-08-05T03:09:19;7.13;;;4.17;;
8737;SDS011;4405;49.272;8.590;2022-08-05T03:11:47;7.50;;;4.60;;
8737;SDS011;4405;49.272;8.590;2022-08-05T03:14:15;5.43;;;4.37;;
8737;SDS011;4405;49.272;8.590;2022-08-05T03:16:41;6.33;;;4.17;;
8737;SDS011;4405;49.272;8.590;2022-08-05T03:19:08;7.03;;;4.23;;
8737;SDS011;4405;49.272;8.590;2022-08-05T03:21:34;7.10;;;4.00;;
8737;SDS011;4405;49.272;8.590;2022-08-05T03:24:00;7.00;;;4.50;;
8737;SDS011;4405;49.272;8.590;2022-08-05T03:26:27;8.23;;;4.67;;
8737;SDS011;4405;49.272;8.590;2022-08-05T03:28:55;10.20;;;4.53;;
8737;SDS011;4405;49.272;8.590;2022-08-05T03:31:21;8.57;;;4.70;;
8737;SDS011;4405;49.272;8.590;2022-08-05T03:33:48;10.10;;;4.40;;
8737;SDS011;4405;49.272;8.590;2022-08-05T03:36:14;8.43;;;4.23;;
8737;SDS011;4405;49.272;8.590;2022-08-05T03:38:41;6.33;;;4.47;;
8737;SDS011;4405;49.272;8.590;2022-08-05T03:41:07;6.90;;;4.20;;
8737;SDS011;4405;49.272;8.590;2022-08-05T03:43:34;7.77;;;4.63;;
8737;SDS011;4405;49.272;8.590;2022-08-05T03:46:02;5.77;;;4.40;;
8737;SDS011;4405;49.272;8.590;2022-08-05T03:48:28;8.23;;;4.47;;
8737;SDS011;4405;49.272;8.590;2022-08-05T03:50:57;8.50;;;4.30;;
8737;SDS011;4405;49.272;8.590;2022-08-05T03:53:27;6.87;;;4.60;;
8737;SDS011;4405;49.272;8.590;2022-08-05T03:55:57;26.90;;;5.83;;
8737;SDS011;4405;49.272;8.590;2022-08-05T03:58:25;11.93;;;4.83;;
8737;SDS011;4405;49.272;8.590;2022-08-05T04:00:53;11.83;;;5.90;;
8737;SDS011;4405;49.272;8.590;2022-08-05T04:03:22;13.00;;;6.13;;
8737;SDS011;4405;49.272;8.590;2022-08-05T04:05:49;14.20;;;6.30;;
8737;SDS011;4405;49.272;8.590;2022-08-05T04:08:16;11.77;;;6.40;;
8737;SDS011;4405;49.272;8.590;2022-08-05T04:10:42;9.20;;;5.57;;
8737;SDS011;4405;49.272;8.590;2022-08-05T04:13:10;11.23;;;6.27;;
8737;SDS011;4405;49.272;8.590;2022-08-05T04:15:36;10.67;;;6.53;;
8737;SDS011;4405;49.272;8.590;2022-08-05T04:18:03;11.67;;;6.50;;
8737;SDS011;4405;49.272;8.590;2022-08-05T04:20:31;13.30;;;6.50;;
8737;SDS011;4405;49.272;8.590;2022-08-05T04:22:57;8.13;;;6.27;;
8737;SDS011;4405;49.272;8.590;2022-08-05T04:25:24;8.80;;;6.20;;
8737;SDS011;4405;49.272;8.590;2022-08-05T04:27:50;13.60;;;6.40;;
8737;SDS011;4405;49.272;8.590;2022-08-05T04:30:16;10.10;;;6.40;;
8737;SDS011;4405;49.272;8.590;2022-08-05T04:32:43;7.50;;;5.83;;
8737;SDS011;4405;49.272;8.590;2022-08-05T04:35:09;10.30;;;6.10;;
8737;SDS011;4405;49.272;8.590;2022-08-05T04:37:37;7.03;;;5.87;;
8737;SDS011;4405;49.272;8.590;2022-08-05T04:40:04;8.13;;;5.60;;
8737;SDS011;4405;49.272;8.590;2022-08-05T04:42:31;7.33;;;5.93;;
8737;SDS011;4405;49.272;8.590;2022-08-05T04:44:57;7.30;;;5.43;;
8737;SDS011;4405;49.272;8.590;2022-08-05T04:47:23;7.17;;;4.93;;
8737;SDS011;4405;49.272;8.590;2022-08-05T04:49:50;4.90;;;4.50;;
8737;SDS011;4405;49.272;8.590;2022-08-05T04:52:16;4.80;;;4.40;;
8737;SDS011;4405;49.272;8.590;2022-08-05T04:54:44;5.20;;;4.70;;
8737;SDS011;4405;49.272;8.590;2022-08-05T04:57:10;7.07;;;4.00;;
8737;SDS011;4405;49.272;8.590;2022-08-05T04:59:37;4.77;;;4.00;;
8737;SDS011;4405;49.272;8.590;2022-08-05T05:02:03;6.60;;;4.17;;
8737;SDS011;4405;49.272;8.590;2022-08-05T05:04:30;4.50;;;3.67;;
8737;SDS011;4405;49.272;8.590;2022-08-05T05:06:56;6.20;;;3.73;;
8737;SDS011;4405;49.272;8.590;2022-08-05T05:09:22;7.97;;;3.73;;
8737;SDS011;4405;49.272;8.590;2022-08-05T05:11:50;4.53;;;3.80;;
8737;SDS011;4405;49.272;8.590;2022-08-05T05:14:16;9.33;;;3.80;;
8737;SDS011;4405;49.272;8.590;2022-08-05T05:16:43;3.43;;;3.10;;
8737;SDS011;4405;49.272;8.590;2022-08-05T05:19:09;4.53;;;3.33;;
8737;SDS011;4405;49.272;8.590;2022-08-05T05:21:35;3.93;;;3.33;;
8737;SDS011;4405;49.272;8.590;2022-08-05T05:24:02;4.07;;;3.20;;
8737;SDS011;4405;49.272;8.590;2022-08-05T05:26:28;4.63;;;3.33;;
8737;SDS011;4405;49.272;8.590;2022-08-05T05:28:56;5.60;;;3.47;;
8737;SDS011;4405;49.272;8.590;2022-08-05T05:31:22;6.27;;;3.53;;
8737;SDS011;4405;49.272;8.590;2022-08-05T05:33:49;3.60;;;3.30;;
8737;SDS011;4405;49.272;8.590;2022-08-05T05:36:15;3.53;;;3.03;;
8737;SDS011;4405;49.272;8.590;2022-08-05T05:38:41;3.53;;;2.80;;
8737;SDS011;4405;49.272;8.590;2022-08-05T05:41:08;3.63;;;2.73;;
8737;SDS011;4405;49.272;8.590;2022-08-05T05:43:34;3.33;;;3.00;;
8737;SDS011;4405;49.272;8.590;2022-08-05T05:46:02;4.60;;;2.40;;
8737;SDS011;4405;49.272;8.590;2022-08-05T05:48:28;6.57;;;3.17;;
8737;SDS011;4405;49.272;8.590;2022-08-05T05:50:55;3.00;;;2.80;;
8737;SDS011;4405;49.272;8.590;2022-08-05T05:53:21;3.23;;;2.93;;
8737;SDS011;4405;49.272;8.590;2022-08-05T05:55:47;3.33;;;2.60;;
8737;SDS011;4405;49.272;8.590;2022-08-05T05:58:14;3.17;;;2.63;;
8737;SDS011;4405;49.272;8.590;2022-08-05T06:00:40;4.83;;;2.97;;
8737;SDS011;4405;49.272;8.590;2022-08-05T06:03:08;2.97;;;2.70;;
8737;SDS011;4405;49.272;8.590;2022-08-05T06:05:34;4.73;;;2.60;;
8737;SDS011;4405;49.272;8.590;2022-08-05T06:08:01;2.93;;;2.60;;
8737;SDS011;4405;49.272;8.590;2022-08-05T06:10:27;2.93;;;2.73;;
8737;SDS011;4405;49.272;8.590;2022-08-05T06:12:53;2.90;;;2.70;;
8737;SDS011;4405;49.272;8.590;2022-08-05T06:15:20;4.27;;;2.93;;
8737;SDS011;4405;49.272;8.590;2022-08-05T06:17:46;2.80;;;2.60;;
8737;SDS011;4405;49.272;8.590;2022-08-05T06:20:14;2.93;;;2.63;;
8737;SDS011;4405;49.272;8.590;2022-08-05T06:22:40;3.13;;;2.83;;
8737;SDS011;4405;49.272;8.590;2022-08-05T06:25:07;3.80;;;3.10;;
8737;SDS011;4405;49.272;8.590;2022-08-05T06:27:33;2.60;;;2.30;;
8737;SDS011;4405;49.272;8.590;2022-08-05T06:30:00;3.37;;;3.07;;
8737;SDS011;4405;49.272;8.590;2022-08-05T06:32:26;3.23;;;2.63;;
8737;SDS011;4405;49.272;8.590;2022-08-05T06:34:52;4.40;;;2.90;;
8737;SDS011;4405;49.272;8.590;2022-08-05T06:37:20;3.93;;;3.00;;
8737;SDS011;4405;49.272;8.590;2022-08-05T06:39:46;5.87;;;3.07;;
8737;SDS011;4405;49.272;8.590;2022-08-05T06:42:13;3.77;;;3.40;;
8737;SDS011;4405;49.272;8.590;2022-08-05T06:44:40;9.97;;;3.37;;
8737;SDS011;4405;49.272;8.590;2022-08-05T06:47:06;8.67;;;3.40;;
8737;SDS011;4405;49.272;8.590;2022-08-05T06:49:34;3.40;;;3.13;;
8737;SDS011;4405;49.272;8.590;2022-08-05T06:52:01;6.67;;;3.50;;
8737;SDS011;4405;49.272;8.590;2022-08-05T06:54:28;4.23;;;3.00;;
8737;SDS011;4405;49.272;8.590;2022-08-05T06:56:55;3.50;;;3.20;;
8737;SDS011;4405;49.272;8.590;2022-08-05T06:59:21;3.33;;;2.97;;
8737;SDS011;4405;49.272;8.590;2022-08-05T07:01:47;3.20;;;3.00;;
8737;SDS011;4405;49.272;8.590;2022-08-05T07:04:14;2.93;;;2.80;;
8737;SDS011;4405;49.272;8.590;2022-08-05T07:06:40;3.60;;;2.70;;
8737;SDS011;4405;49.272;8.590;2022-08-05T07:09:06;3.10;;;2.90;;
8737;SDS011;4405;49.272;8.590;2022-08-05T07:11:34;3.10;;;2.80;;
8737;SDS011;4405;49.272;8.590;2022-08-05T07:14:01;3.20;;;3.00;;
8737;SDS011;4405;49.272;8.590;2022-08-05T07:16:45;4.40;;;3.03;;
8737;SDS011;4405;49.272;8.590;2022-08-05T07:19:23;3.20;;;2.80;;
8737;SDS011;4405;49.272;8.590;2022-08-05T07:21:50;4.33;;;3.10;;
8737;SDS011;4405;49.272;8.590;2022-08-05T07:24:16;3.10;;;2.90;;
8737;SDS011;4405;49.272;8.590;2022-08-05T07:26:44;3.77;;;2.97;;
8737;SDS011;4405;49.272;8.590;2022-08-05T07:29:10;3.07;;;2.87;;
8737;SDS011;4405;49.272;8.590;2022-08-05T07:31:37;3.20;;;3.00;;
8737;SDS011;4405;49.272;8.590;2022-08-05T07:34:03;3.23;;;2.93;;
8737;SDS011;4405;49.272;8.590;2022-08-05T07:36:30;3.40;;;3.10;;
8737;SDS011;4405;49.272;8.590;2022-08-05T07:38:57;3.07;;;2.87;;
8737;SDS011;4405;49.272;8.590;2022-08-05T07:41:23;3.40;;;3.10;;
8737;SDS011;4405;49.272;8.590;2022-08-05T07:43:51;3.30;;;3.10;;
8737;SDS011;4405;49.272;8.590;2022-08-05T07:46:18;2.93;;;2.73;;
8737;SDS011;4405;49.272;8.590;2022-08-05T07:48:44;2.97;;;2.83;;
8737;SDS011;4405;49.272;8.590;2022-08-05T07:51:11;3.43;;;3.23;;
8737;SDS011;4405;49.272;8.590;2022-08-05T07:53:39;3.10;;;2.90;;
8737;SDS011;4405;49.272;8.590;2022-08-05T07:56:06;3.33;;;3.03;;
8737;SDS011;4405;49.272;8.590;2022-08-05T07:58:32;3.30;;;3.00;;
8737;SDS011;4405;49.272;8.590;2022-08-05T08:01:00;3.17;;;2.87;;
8737;SDS011;4405;49.272;8.590;2022-08-05T08:03:26;5.57;;;3.30;;
8737;SDS011;4405;49.272;8.590;2022-08-05T08:05:53;4.23;;;2.73;;
8737;SDS011;4405;49.272;8.590;2022-08-05T08:08:19;4.90;;;3.27;;
8737;SDS011;4405;49.272;8.590;2022-08-05T08:10:46;3.50;;;2.77;;
8737;SDS011;4405;49.272;8.590;2022-08-05T08:13:12;4.43;;;3.00;;
8737;SDS011;4405;49.272;8.590;2022-08-05T08:15:39;5.80;;;2.90;;
8737;SDS011;4405;49.272;8.590;2022-08-05T08:18:07;3.30;;;3.00;;
8737;SDS011;4405;49.272;8.590;2022-08-05T08:20:33;2.70;;;2.60;;
8737;SDS011;4405;49.272;8.590;2022-08-05T08:22:59;3.17;;;2.87;;
8737;SDS011;4405;49.272;8.590;2022-08-05T08:25:26;5.27;;;2.80;;
8737;SDS011;4405;49.272;8.590;2022-08-05T08:27:53;3.20;;;2.53;;
8737;SDS011;4405;49.272;8.590;2022-08-05T08:30:20;2.70;;;2.50;;
8737;SDS011;4405;49.272;8.590;2022-08-05T08:32:47;2.77;;;2.57;;
8737;SDS011;4405;49.272;8.590;2022-08-05T08:35:14;5.10;;;2.50;;
8737;SDS011;4405;49.272;8.590;2022-08-05T08:37:41;2.40;;;2.30;;
8737;SDS011;4405;49.272;8.590;2022-08-05T08:40:07;2.80;;;2.60;;
8737;SDS011;4405;49.272;8.590;2022-08-05T08:42:34;2.70;;;2.50;;
8737;SDS011;4405;49.272;8.590;2022-08-05T08:45:01;2.60;;;2.50;;
8737;SDS011;4405;49.272;8.590;2022-08-05T08:47:28;2.70;;;2.50;;
8737;SDS011;4405;49.272;8.590;2022-08-05T08:49:55;4.13;;;2.23;;
8737;SDS011;4405;49.272;8.590;2022-08-05T08:52:24;2.47;;;2.27;;
8737;SDS011;4405;49.272;8.590;2022-08-05T08:54:51;2.10;;;1.90;;
8737;SDS011;4405;49.272;8.590;2022-08-05T08:57:18;10.30;;;2.20;;
8737;SDS011;4405;49.272;8.590;2022-08-05T08:59:44;2.80;;;2.27;;
8737;SDS011;4405;49.272;8.590;2022-08-05T09:02:11;3.67;;;2.17;;
8737;SDS011;4405;49.272;8.590;2022-08-05T09:04:38;2.30;;;2.20;;
8737;SDS011;4405;49.272;8.590;2022-08-05T09:07:05;2.17;;;2.07;;
8737;SDS011;4405;49.272;8.590;2022-08-05T09:09:33;2.07;;;1.97;;
8737;SDS011;4405;49.272;8.590;2022-08-05T09:12:00;1.80;;;1.70;;
8737;SDS011;4405;49.272;8.590;2022-08-05T09:14:26;2.53;;;2.10;;
8737;SDS011;4405;49.272;8.590;2022-08-05T09:16:53;1.90;;;1.80;;
8737;SDS011;4405;49.272;8.590;2022-08-05T09:19:19;2.00;;;1.90;;
8737;SDS011;4405;49.272;8.590;2022-08-05T09:21:45;1.63;;;1.63;;
8737;SDS011;4405;49.272;8.590;2022-08-05T09:24:12;1.90;;;1.80;;
8737;SDS011;4405;49.272;8.590;2022-08-05T09:26:40;2.17;;;2.03;;
8737;SDS011;4405;49.272;8.590;2022-08-05T09:29:07;1.80;;;1.80;;
8737;SDS011;4405;49.272;8.590;2022-08-05T09:31:33;2.00;;;2.00;;
8737;SDS011;4405;49.272;8.590;2022-08-05T09:34:02;2.10;;;2.00;;
8737;SDS011;4405;49.272;8.590;2022-08-05T09:36:38;3.93;;;2.20;;
8737;SDS011;4405;49.272;8.590;2022-08-05T09:39:06;2.13;;;2.03;;
8737;SDS011;4405;49.272;8.590;2022-08-05T09:41:32;2.47;;;2.37;;
8737;SDS011;4405;49.272;8.590;2022-08-05T09:44:00;2.20;;;2.10;;
8737;SDS011;4405;49.272;8.590;2022-08-05T09:46:28;2.27;;;2.17;;
8737;SDS011;4405;49.272;8.590;2022-08-05T09:48:55;2.33;;;2.20;;
8737;SDS011;4405;49.272;8.590;2022-08-05T09:51:31;2.80;;;2.17;;
8737;SDS011;4405;49.272;8.590;2022-08-05T09:53:57;2.20;;;2.10;;
8737;SDS011;4405;49.272;8.590;2022-08-05T09:56:24;2.63;;;2.10;;
8737;SDS011;4405;49.272;8.590;2022-08-05T09:58:57;3.77;;;2.20;;
8737;SDS011;4405;49.272;8.590;2022-08-05T10:01:25;2.20;;;2.10;;
8737;SDS011;4405;49.272;8.590;2022-08-05T10:03:56;2.30;;;2.20;;
8737;SDS011;4405;49.272;8.590;2022-08-05T10:06:24;1.97;;;1.80;;
8737;SDS011;4405;49.272;8.590;2022-08-05T10:08:50;1.83;;;1.83;;
8737;SDS011;4405;49.272;8.590;2022-08-05T10:11:17;1.90;;;1.80;;
8737;SDS011;4405;49.272;8.590;2022-08-05T10:13:43;2.00;;;1.90;;
8737;SDS011;4405;49.272;8.590;2022-08-05T10:18:52;3.17;;;2.10;;
8737;SDS011;4405;49.272;8.590;2022-08-05T10:21:19;1.83;;;1.73;;
8737;SDS011;4405;49.272;8.590;2022-08-05T10:23:45;2.20;;;2.10;;
8737;SDS011;4405;49.272;8.590;2022-08-05T10:26:12;2.27;;;2.17;;
8737;SDS011;4405;49.272;8.590;2022-08-05T10:28:39;3.33;;;2.30;;
8737;SDS011;4405;49.272;8.590;2022-08-05T10:31:06;4.40;;;2.30;;
8737;SDS011;4405;49.272;8.590;2022-08-05T10:33:33;2.87;;;2.20;;
8737;SDS011;4405;49.272;8.590;2022-08-05T10:36:01;2.50;;;2.00;;
8737;SDS011;4405;49.272;8.590;2022-08-05T10:38:29;2.00;;;1.90;;
8737;SDS011;4405;49.272;8.590;2022-08-05T10:40:57;3.30;;;2.00;;
8737;SDS011;4405;49.272;8.590;2022-08-05T10:43:32;4.03;;;2.03;;
8737;SDS011;4405;49.272;8.590;2022-08-05T10:46:00;2.10;;;2.00;;
8737;SDS011;4405;49.272;8.590;2022-08-05T10:48:27;2.13;;;2.03;;
8737;SDS011;4405;49.272;8.590;2022-08-05T10:50:58;2.33;;;2.23;;
8737;SDS011;4405;49.272;8.590;2022-08-05T10:53:39;2.23;;;2.03;;
8737;SDS011;4405;49.272;8.590;2022-08-05T10:56:07;4.17;;;2.30;;
8737;SDS011;4405;49.272;8.590;2022-08-05T10:58:33;2.90;;;1.90;;
8737;SDS011;4405;49.272;8.590;2022-08-05T11:01:02;3.90;;;2.00;;
8737;SDS011;4405;49.272;8.590;2022-08-05T11:03:29;2.30;;;2.20;;
8737;SDS011;4405;49.272;8.590;2022-08-05T11:06:06;2.50;;;2.30;;
8737;SDS011;4405;49.272;8.590;2022-08-05T11:08:32;2.13;;;2.00;;
8737;SDS011;4405;49.272;8.590;2022-08-05T11:13:42;2.38;;;2.17;;
8737;SDS011;4405;49.272;8.590;2022-08-05T11:16:21;2.10;;;2.00;;
8737;SDS011;4405;49.272;8.590;2022-08-05T11:18:54;2.30;;;2.20;;
8737;SDS011;4405;49.272;8.590;2022-08-05T11:21:40;2.10;;;2.00;;
8737;SDS011;4405;49.272;8.590;2022-08-05T11:24:07;2.55;;;2.35;;
8737;SDS011;4405;49.272;8.590;2022-08-05T11:26:33;2.35;;;2.20;;
8737;SDS011;4405;49.272;8.590;2022-08-05T11:29:02;2.35;;;2.25;;
8737;SDS011;4405;49.272;8.590;2022-08-05T11:31:29;2.42;;;2.22;;
8737;SDS011;4405;49.272;8.590;2022-08-05T11:33:57;2.53;;;2.30;;
8737;SDS011;4405;49.272;8.590;2022-08-05T11:36:43;2.33;;;2.20;;
8737;SDS011;4405;49.272;8.590;2022-08-05T11:39:11;2.38;;;2.22;;
8737;SDS011;4405;49.272;8.590;2022-08-05T11:41:38;2.05;;;1.95;;
8737;SDS011;4405;49.272;8.590;2022-08-05T11:44:07;2.60;;;2.08;;
8737;SDS011;4405;49.272;8.590;2022-08-05T11:46:38;3.33;;;2.20;;
8737;SDS011;4405;49.272;8.590;2022-08-05T11:49:05;2.15;;;2.10;;
8737;SDS011;4405;49.272;8.590;2022-08-05T11:51:31;2.40;;;2.30;;
8737;SDS011;4405;49.272;8.590;2022-08-05T11:53:58;2.47;;;2.30;;
8737;SDS011;4405;49.272;8.590;2022-08-05T11:56:26;2.80;;;2.60;;
8737;SDS011;4405;49.272;8.590;2022-08-05T11:59:11;2.60;;;2.40;;
8737;SDS011;4405;49.272;8.590;2022-08-05T12:01:37;2.83;;;2.63;;
8737;SDS011;4405;49.272;8.590;2022-08-05T12:04:17;2.60;;;2.50;;
8737;SDS011;4405;49.272;8.590;2022-08-05T12:06:43;4.78;;;2.40;;
8737;SDS011;4405;49.272;8.590;2022-08-05T12:09:10;2.58;;;2.47;;
8737;SDS011;4405;49.272;8.590;2022-08-05T12:11:36;2.58;;;2.47;;
8737;SDS011;4405;49.272;8.590;2022-08-05T12:14:03;2.63;;;2.53;;
8737;SDS011;4405;49.272;8.590;2022-08-05T12:16:32;2.72;;;2.63;;
8737;SDS011;4405;49.272;8.590;2022-08-05T12:18:59;2.78;;;2.60;;
8737;SDS011;4405;49.272;8.590;2022-08-05T12:21:27;3.33;;;2.83;;
8737;SDS011;4405;49.272;8.590;2022-08-05T12:23:56;2.90;;;2.70;;
8737;SDS011;4405;49.272;8.590;2022-08-05T12:26:22;2.78;;;2.67;;
8737;SDS011;4405;49.272;8.590;2022-08-05T12:28:49;3.20;;;3.00;;
8737;SDS011;4405;49.272;8.590;2022-08-05T12:31:15;2.60;;;2.50;;
8737;SDS011;4405;49.272;8.590;2022-08-05T12:33:43;2.70;;;2.60;;
8737;SDS011;4405;49.272;8.590;2022-08-05T12:36:10;5.70;;;2.67;;
8737;SDS011;4405;49.272;8.590;2022-08-05T12:38:37;2.97;;;2.78;;
8737;SDS011;4405;49.272;8.590;2022-08-05T12:41:05;3.10;;;2.90;;
8737;SDS011;4405;49.272;8.590;2022-08-05T12:43:32;3.42;;;3.17;;
8737;SDS011;4405;49.272;8.590;2022-08-05T12:45:58;5.55;;;2.90;;
8737;SDS011;4405;49.272;8.590;2022-08-05T12:48:25;3.03;;;2.83;;
8737;SDS011;4405;49.272;8.590;2022-08-05T12:51:11;3.75;;;3.38;;
8737;SDS011;4405;49.272;8.590;2022-08-05T12:53:42;2.95;;;2.70;;
8737;SDS011;4405;49.272;8.590;2022-08-05T12:56:15;4.50;;;2.97;;
8737;SDS011;4405;49.272;8.590;2022-08-05T12:58:41;3.65;;;2.83;;
8737;SDS011;4405;49.272;8.590;2022-08-05T13:01:08;3.15;;;3.03;;
8737;SDS011;4405;49.272;8.590;2022-08-05T13:03:35;4.40;;;3.10;;
8737;SDS011;4405;49.272;8.590;2022-08-05T13:06:01;3.65;;;2.72;;
8737;SDS011;4405;49.272;8.590;2022-08-05T13:08:29;6.70;;;2.78;;
8737;SDS011;4405;49.272;8.590;2022-08-05T13:10:58;2.95;;;2.75;;
8737;SDS011;4405;49.272;8.590;2022-08-05T13:13:25;2.67;;;2.53;;
8737;SDS011;4405;49.272;8.590;2022-08-05T13:15:52;2.90;;;2.80;;
8737;SDS011;4405;49.272;8.590;2022-08-05T13:18:19;3.20;;;3.00;;
8737;SDS011;4405;49.272;8.590;2022-08-05T13:20:46;3.92;;;2.75;;
8737;SDS011;4405;49.272;8.590;2022-08-05T13:23:12;2.85;;;2.70;;
8737;SDS011;4405;49.272;8.590;2022-08-05T13:25:40;3.15;;;2.88;;
8737;SDS011;4405;49.272;8.590;2022-08-05T13:28:06;4.00;;;3.03;;
8737;SDS011;4405;49.272;8.590;2022-08-05T13:30:33;5.55;;;2.63;;
8737;SDS011;4405;49.272;8.590;2022-08-05T13:32:59;3.10;;;2.90;;
8737;SDS011;4405;49.272;8.590;2022-08-05T13:35:25;2.78;;;2.67;;
8737;SDS011;4405;49.272;8.590;2022-08-05T13:37:52;2.97;;;2.70;;
8737;SDS011;4405;49.272;8.590;2022-08-05T13:40:18;2.85;;;2.67;;
8737;SDS011;4405;49.272;8.590;2022-08-05T13:42:46;3.15;;;2.88;;
8737;SDS011;4405;49.272;8.590;2022-08-05T13:45:12;2.80;;;2.70;;
8737;SDS011;4405;49.272;8.590;2022-08-05T13:47:39;2.72;;;2.60;;
8737;SDS011;4405;49.272;8.590;2022-08-05T13:50:05;3.30;;;3.10;;
8737;SDS011;4405;49.272;8.590;2022-08-05T13:52:32;2.93;;;2.73;;
8737;SDS011;4405;49.272;8.590;2022-08-05T13:54:59;2.73;;;2.53;;
8737;SDS011;4405;49.272;8.590;2022-08-05T13:57:25;4.23;;;3.00;;
8737;SDS011;4405;49.272;8.590;2022-08-05T13:59:53;4.97;;;2.63;;
8737;SDS011;4405;49.272;8.590;2022-08-05T14:02:19;2.90;;;2.80;;
8737;SDS011;4405;49.272;8.590;2022-08-05T14:04:46;2.83;;;2.70;;
8737;SDS011;4405;49.272;8.590;2022-08-05T14:07:44;2.90;;;2.70;;
8737;SDS011;4405;49.272;8.590;2022-08-05T14:10:12;2.80;;;2.70;;
8737;SDS011;4405;49.272;8.590;2022-08-05T14:12:39;3.30;;;2.70;;
8737;SDS011;4405;49.272;8.590;2022-08-05T14:15:07;3.08;;;2.88;;
8737;SDS011;4405;49.272;8.590;2022-08-05T14:17:33;2.90;;;2.80;;
8737;SDS011;4405;49.272;8.590;2022-08-05T14:20:00;2.63;;;2.53;;
8737;SDS011;4405;49.272;8.590;2022-08-05T14:22:26;2.90;;;2.70;;
8737;SDS011;4405;49.272;8.590;2022-08-05T14:24:53;2.97;;;2.55;;
8737;SDS011;4405;49.272;8.590;2022-08-05T14:27:19;2.70;;;2.60;;
8737;SDS011;4405;49.272;8.590;2022-08-05T14:29:45;2.80;;;2.60;;
8737;SDS011;4405;49.272;8.590;2022-08-05T14:32:13;2.72;;;2.53;;
8737;SDS011;4405;49.272;8.590;2022-08-05T14:34:40;2.90;;;2.72;;
8737;SDS011;4405;49.272;8.590;2022-08-05T14:37:06;3.03;;;2.83;;
8737;SDS011;4405;49.272;8.590;2022-08-05T14:39:33;6.28;;;2.88;;
8737;SDS011;4405;49.272;8.590;2022-08-05T14:41:59;3.30;;;2.88;;
8737;SDS011;4405;49.272;8.590;2022-08-05T14:44:26;2.90;;;2.70;;
8737;SDS011;4405;49.272;8.590;2022-08-05T14:46:52;2.60;;;2.50;;
8737;SDS011;4405;49.272;8.590;2022-08-05T14:49:20;2.58;;;2.47;;
8737;SDS011;4405;49.272;8.590;2022-08-05T14:51:46;2.50;;;2.40;;
8737;SDS011;4405;49.272;8.590;2022-08-05T14:54:13;2.73;;;2.40;;
8737;SDS011;4405;49.272;8.590;2022-08-05T14:56:39;2.50;;;2.40;;
8737;SDS011;4405;49.272;8.590;2022-08-05T14:59:05;2.60;;;2.40;;
8737;SDS011;4405;49.272;8.590;2022-08-05T15:01:32;2.87;;;2.67;;
8737;SDS011;4405;49.272;8.590;2022-08-05T15:03:58;3.10;;;2.80;;
8737;SDS011;4405;49.272;8.590;2022-08-05T15:06:26;3.27;;;2.70;;
8737;SDS011;4405;49.272;8.590;2022-08-05T15:08:54;2.77;;;2.60;;
8737;SDS011;4405;49.272;8.590;2022-08-05T15:11:20;3.30;;;2.67;;
8737;SDS011;4405;49.272;8.590;2022-08-05T15:13:47;3.00;;;2.80;;
8737;SDS011;4405;49.272;8.590;2022-08-05T15:16:14;3.50;;;3.00;;
8737;SDS011;4405;49.272;8.590;2022-08-05T15:18:40;2.40;;;2.40;;
8737;SDS011;4405;49.272;8.590;2022-08-05T15:21:06;3.13;;;2.90;;